sensor_id;sensor_type;location;lat;lon;timestamp;P1;durP1;ratioP1;P2;durP2;ratioP2
70049;SDS011;57391;51.306;22.680;2022-08-20T00:01:06;10.20;;;6.00;;
70049;SDS011;57391;51.306;22.680;2022-08-20T00:03:39;13.30;;;6.00;;
70049;SDS011;57391;51.306;22.680;2022-08-20T00:06:10;12.10;;;5.90;;
70049;SDS011;57391;51.306;22.680;2022-08-20T00:08:42;15.50;;;6.00;;
70049;SDS011;57391;51.306;22.680;2022-08-20T00:11:12;10.80;;;5.90;;
70049;SDS011;57391;51.306;22.680;2022-08-20T00:13:45;11.70;;;6.20;;
70049;SDS011;57391;51.306;22.680;2022-08-20T00:16:16;11.00;;;6.00;;
70049;SDS011;57391;51.306;22.680;2022-08-20T00:18:45;13.10;;;6.50;;
70049;SDS011;57391;51.306;22.680;2022-08-20T00:21:15;11.30;;;6.30;;
70049;SDS011;57391;51.306;22.680;2022-08-20T00:23:47;11.40;;;5.70;;
70049;SDS011;57391;51.306;22.680;2022-08-20T00:26:16;14.40;;;7.00;;
70049;SDS011;57391;51.306;22.680;2022-08-20T00:28:44;9.30;;;5.90;;
70049;SDS011;57391;51.306;22.680;2022-08-20T00:31:14;14.10;;;6.30;;
70049;SDS011;57391;51.306;22.680;2022-08-20T00:33:45;13.20;;;6.00;;
70049;SDS011;57391;51.306;22.680;2022-08-20T00:36:13;9.50;;;6.40;;
70049;SDS011;57391;51.306;22.680;2022-08-20T00:38:44;11.60;;;6.00;;
70049;SDS011;57391;51.306;22.680;2022-08-20T00:41:32;10.60;;;6.40;;
70049;SDS011;57391;51.306;22.680;2022-08-20T00:46:27;12.30;;;6.70;;
70049;SDS011;57391;51.306;22.680;2022-08-20T00:48:59;15.90;;;6.40;;
70049;SDS011;57391;51.306;22.680;2022-08-20T00:51:47;10.80;;;6.60;;
70049;SDS011;57391;51.306;22.680;2022-08-20T00:54:25;12.10;;;7.10;;
70049;SDS011;57391;51.306;22.680;2022-08-20T01:00:15;13.80;;;6.30;;
70049;SDS011;57391;51.306;22.680;2022-08-20T01:02:45;13.60;;;6.70;;
70049;SDS011;57391;51.306;22.680;2022-08-20T01:05:13;12.30;;;6.50;;
70049;SDS011;57391;51.306;22.680;2022-08-20T01:07:41;12.90;;;6.80;;
70049;SDS011;57391;51.306;22.680;2022-08-20T01:10:37;10.70;;;6.50;;
70049;SDS011;57391;51.306;22.680;2022-08-20T01:13:12;13.70;;;6.80;;
70049;SDS011;57391;51.306;22.680;2022-08-20T01:15:43;12.40;;;6.70;;
70049;SDS011;57391;51.306;22.680;2022-08-20T01:18:19;11.60;;;7.00;;
70049;SDS011;57391;51.306;22.680;2022-08-20T01:20:54;15.10;;;6.80;;
70049;SDS011;57391;51.306;22.680;2022-08-20T01:29:02;11.10;;;6.30;;
70049;SDS011;57391;51.306;22.680;2022-08-20T01:31:37;12.00;;;6.50;;
70049;SDS011;57391;51.306;22.680;2022-08-20T01:34:09;11.70;;;7.10;;
70049;SDS011;57391;51.306;22.680;2022-08-20T01:36:45;9.70;;;7.10;;
70049;SDS011;57391;51.306;22.680;2022-08-20T01:39:25;11.00;;;6.80;;
70049;SDS011;57391;51.306;22.680;2022-08-20T01:44:56;11.20;;;7.30;;
70049;SDS011;57391;51.306;22.680;2022-08-20T01:47:28;12.80;;;6.80;;
70049;SDS011;57391;51.306;22.680;2022-08-20T01:50:00;11.30;;;7.70;;
70049;SDS011;57391;51.306;22.680;2022-08-20T01:55:30;13.40;;;7.30;;
70049;SDS011;57391;51.306;22.680;2022-08-20T01:57:59;11.30;;;7.20;;
70049;SDS011;57391;51.306;22.680;2022-08-20T02:00:27;12.70;;;6.90;;
70049;SDS011;57391;51.306;22.680;2022-08-20T02:02:54;11.80;;;7.00;;
70049;SDS011;57391;51.306;22.680;2022-08-20T02:05:21;10.10;;;7.20;;
70049;SDS011;57391;51.306;22.680;2022-08-20T02:07:49;11.00;;;6.70;;
70049;SDS011;57391;51.306;22.680;2022-08-20T02:10:17;10.80;;;6.70;;
70049;SDS011;57391;51.306;22.680;2022-08-20T02:12:45;10.70;;;7.40;;
70049;SDS011;57391;51.306;22.680;2022-08-20T02:15:12;11.10;;;6.80;;
70049;SDS011;57391;51.306;22.680;2022-08-20T02:17:39;12.80;;;6.90;;
70049;SDS011;57391;51.306;22.680;2022-08-20T02:20:17;11.20;;;6.90;;
70049;SDS011;57391;51.306;22.680;2022-08-20T02:22:52;12.70;;;6.90;;
70049;SDS011;57391;51.306;22.680;2022-08-20T02:25:26;11.70;;;6.60;;
70049;SDS011;57391;51.306;22.680;2022-08-20T02:28:00;10.30;;;7.00;;
70049;SDS011;57391;51.306;22.680;2022-08-20T02:30:33;14.60;;;7.00;;
70049;SDS011;57391;51.306;22.680;2022-08-20T02:33:05;12.70;;;7.00;;
70049;SDS011;57391;51.306;22.680;2022-08-20T02:35:37;14.50;;;7.00;;
70049;SDS011;57391;51.306;22.680;2022-08-20T02:38:06;15.30;;;7.10;;
70049;SDS011;57391;51.306;22.680;2022-08-20T02:40:34;10.90;;;7.00;;
70049;SDS011;57391;51.306;22.680;2022-08-20T02:43:02;13.60;;;6.90;;
70049;SDS011;57391;51.306;22.680;2022-08-20T02:45:32;12.30;;;7.40;;
70049;SDS011;57391;51.306;22.680;2022-08-20T02:48:05;12.70;;;7.80;;
70049;SDS011;57391;51.306;22.680;2022-08-20T02:50:32;15.00;;;7.30;;
70049;SDS011;57391;51.306;22.680;2022-08-20T02:52:59;12.40;;;7.30;;
70049;SDS011;57391;51.306;22.680;2022-08-20T02:55:26;13.30;;;7.70;;
70049;SDS011;57391;51.306;22.680;2022-08-20T02:57:57;11.70;;;7.70;;
70049;SDS011;57391;51.306;22.680;2022-08-20T03:00:29;13.00;;;7.40;;
70049;SDS011;57391;51.306;22.680;2022-08-20T03:02:56;12.00;;;7.50;;
70049;SDS011;57391;51.306;22.680;2022-08-20T03:05:24;13.80;;;7.70;;
70049;SDS011;57391;51.306;22.680;2022-08-20T03:07:52;11.90;;;7.20;;
70049;SDS011;57391;51.306;22.680;2022-08-20T03:10:33;12.60;;;7.50;;
70049;SDS011;57391;51.306;22.680;2022-08-20T03:13:03;12.90;;;7.90;;
70049;SDS011;57391;51.306;22.680;2022-08-20T03:15:33;12.10;;;8.30;;
70049;SDS011;57391;51.306;22.680;2022-08-20T03:18:00;12.60;;;8.00;;
70049;SDS011;57391;51.306;22.680;2022-08-20T03:20:28;13.10;;;8.20;;
70049;SDS011;57391;51.306;22.680;2022-08-20T03:22:56;13.70;;;7.80;;
70049;SDS011;57391;51.306;22.680;2022-08-20T03:25:24;11.10;;;7.90;;
70049;SDS011;57391;51.306;22.680;2022-08-20T03:27:54;15.90;;;8.00;;
70049;SDS011;57391;51.306;22.680;2022-08-20T03:30:24;14.60;;;8.00;;
70049;SDS011;57391;51.306;22.680;2022-08-20T03:32:53;13.70;;;8.00;;
70049;SDS011;57391;51.306;22.680;2022-08-20T03:35:23;12.80;;;7.80;;
70049;SDS011;57391;51.306;22.680;2022-08-20T03:37:52;11.00;;;7.60;;
70049;SDS011;57391;51.306;22.680;2022-08-20T03:40:25;12.60;;;7.30;;
70049;SDS011;57391;51.306;22.680;2022-08-20T03:42:56;15.40;;;8.00;;
70049;SDS011;57391;51.306;22.680;2022-08-20T03:45:25;14.00;;;7.40;;
70049;SDS011;57391;51.306;22.680;2022-08-20T03:47:54;14.50;;;8.30;;
70049;SDS011;57391;51.306;22.680;2022-08-20T03:50:26;12.60;;;8.10;;
70049;SDS011;57391;51.306;22.680;2022-08-20T03:52:57;13.20;;;7.90;;
70049;SDS011;57391;51.306;22.680;2022-08-20T03:55:27;12.90;;;8.40;;
70049;SDS011;57391;51.306;22.680;2022-08-20T03:58:01;13.70;;;7.80;;
70049;SDS011;57391;51.306;22.680;2022-08-20T04:00:36;12.20;;;7.90;;
70049;SDS011;57391;51.306;22.680;2022-08-20T04:03:04;14.00;;;8.10;;
70049;SDS011;57391;51.306;22.680;2022-08-20T04:05:36;12.40;;;7.80;;
70049;SDS011;57391;51.306;22.680;2022-08-20T04:08:19;15.00;;;8.00;;
70049;SDS011;57391;51.306;22.680;2022-08-20T04:10:50;13.10;;;8.10;;
70049;SDS011;57391;51.306;22.680;2022-08-20T04:13:19;14.80;;;8.40;;
70049;SDS011;57391;51.306;22.680;2022-08-20T04:15:48;12.20;;;7.30;;
70049;SDS011;57391;51.306;22.680;2022-08-20T04:18:16;11.30;;;7.00;;
70049;SDS011;57391;51.306;22.680;2022-08-20T04:20:49;10.20;;;6.90;;
70049;SDS011;57391;51.306;22.680;2022-08-20T04:23:19;12.30;;;7.20;;
70049;SDS011;57391;51.306;22.680;2022-08-20T04:25:47;10.20;;;7.20;;
70049;SDS011;57391;51.306;22.680;2022-08-20T04:28:20;15.60;;;7.40;;
70049;SDS011;57391;51.306;22.680;2022-08-20T04:30:54;10.20;;;6.70;;
70049;SDS011;57391;51.306;22.680;2022-08-20T04:33:24;10.60;;;6.60;;
70049;SDS011;57391;51.306;22.680;2022-08-20T04:35:53;13.20;;;6.70;;
70049;SDS011;57391;51.306;22.680;2022-08-20T04:38:25;10.40;;;5.90;;
70049;SDS011;57391;51.306;22.680;2022-08-20T04:40:52;12.60;;;6.90;;
70049;SDS011;57391;51.306;22.680;2022-08-20T04:43:27;11.20;;;7.60;;
70049;SDS011;57391;51.306;22.680;2022-08-20T04:46:03;13.70;;;7.00;;
70049;SDS011;57391;51.306;22.680;2022-08-20T04:48:35;13.80;;;6.70;;
70049;SDS011;57391;51.306;22.680;2022-08-20T04:51:07;11.00;;;6.40;;
70049;SDS011;57391;51.306;22.680;2022-08-20T04:53:34;11.70;;;6.60;;
70049;SDS011;57391;51.306;22.680;2022-08-20T04:56:02;9.40;;;6.60;;
70049;SDS011;57391;51.306;22.680;2022-08-20T04:58:32;11.50;;;7.00;;
70049;SDS011;57391;51.306;22.680;2022-08-20T05:01:05;10.00;;;6.60;;
70049;SDS011;57391;51.306;22.680;2022-08-20T05:03:38;14.30;;;7.30;;
70049;SDS011;57391;51.306;22.680;2022-08-20T05:06:08;12.90;;;7.30;;
70049;SDS011;57391;51.306;22.680;2022-08-20T05:08:38;12.80;;;7.30;;
70049;SDS011;57391;51.306;22.680;2022-08-20T05:11:06;12.10;;;7.40;;
70049;SDS011;57391;51.306;22.680;2022-08-20T05:13:35;9.90;;;6.80;;
70049;SDS011;57391;51.306;22.680;2022-08-20T05:16:02;12.60;;;7.10;;
70049;SDS011;57391;51.306;22.680;2022-08-20T05:18:30;15.10;;;7.20;;
70049;SDS011;57391;51.306;22.680;2022-08-20T05:21:00;10.80;;;7.00;;
70049;SDS011;57391;51.306;22.680;2022-08-20T05:23:34;15.30;;;7.50;;
70049;SDS011;57391;51.306;22.680;2022-08-20T05:26:03;13.00;;;7.10;;
70049;SDS011;57391;51.306;22.680;2022-08-20T05:28:34;11.80;;;7.40;;
70049;SDS011;57391;51.306;22.680;2022-08-20T05:31:05;14.30;;;7.40;;
70049;SDS011;57391;51.306;22.680;2022-08-20T05:33:36;11.50;;;7.40;;
70049;SDS011;57391;51.306;22.680;2022-08-20T05:36:05;15.90;;;7.60;;
70049;SDS011;57391;51.306;22.680;2022-08-20T05:38:34;11.40;;;6.30;;
70049;SDS011;57391;51.306;22.680;2022-08-20T05:41:04;13.10;;;7.10;;
70049;SDS011;57391;51.306;22.680;2022-08-20T05:43:31;13.10;;;7.50;;
70049;SDS011;57391;51.306;22.680;2022-08-20T05:45:59;13.00;;;7.30;;
70049;SDS011;57391;51.306;22.680;2022-08-20T05:48:27;12.50;;;7.20;;
70049;SDS011;57391;51.306;22.680;2022-08-20T05:50:55;10.00;;;6.60;;
70049;SDS011;57391;51.306;22.680;2022-08-20T05:53:24;14.00;;;7.20;;
70049;SDS011;57391;51.306;22.680;2022-08-20T05:55:52;11.60;;;7.30;;
70049;SDS011;57391;51.306;22.680;2022-08-20T05:58:22;10.20;;;6.20;;
70049;SDS011;57391;51.306;22.680;2022-08-20T06:00:53;13.10;;;6.30;;
70049;SDS011;57391;51.306;22.680;2022-08-20T06:03:21;11.80;;;6.60;;
70049;SDS011;57391;51.306;22.680;2022-08-20T06:06:08;12.10;;;6.60;;
70049;SDS011;57391;51.306;22.680;2022-08-20T06:08:36;14.10;;;7.10;;
70049;SDS011;57391;51.306;22.680;2022-08-20T06:11:04;12.50;;;6.90;;
70049;SDS011;57391;51.306;22.680;2022-08-20T06:13:32;13.50;;;6.60;;
70049;SDS011;57391;51.306;22.680;2022-08-20T06:16:00;10.70;;;6.60;;
70049;SDS011;57391;51.306;22.680;2022-08-20T06:18:27;10.70;;;6.60;;
70049;SDS011;57391;51.306;22.680;2022-08-20T06:20:55;12.90;;;6.70;;
70049;SDS011;57391;51.306;22.680;2022-08-20T06:23:22;9.90;;;5.90;;
70049;SDS011;57391;51.306;22.680;2022-08-20T06:25:51;10.80;;;7.00;;
70049;SDS011;57391;51.306;22.680;2022-08-20T06:28:19;10.10;;;6.80;;
70049;SDS011;57391;51.306;22.680;2022-08-20T06:30:46;12.40;;;7.30;;
70049;SDS011;57391;51.306;22.680;2022-08-20T06:33:13;10.40;;;7.00;;
70049;SDS011;57391;51.306;22.680;2022-08-20T06:35:40;11.90;;;7.30;;
70049;SDS011;57391;51.306;22.680;2022-08-20T06:38:10;10.20;;;6.70;;
70049;SDS011;57391;51.306;22.680;2022-08-20T06:40:38;12.30;;;6.70;;
70049;SDS011;57391;51.306;22.680;2022-08-20T06:43:07;12.40;;;6.80;;
70049;SDS011;57391;51.306;22.680;2022-08-20T06:45:36;9.90;;;6.30;;
70049;SDS011;57391;51.306;22.680;2022-08-20T06:48:12;13.60;;;6.40;;
70049;SDS011;57391;51.306;22.680;2022-08-20T06:50:42;10.50;;;6.30;;
70049;SDS011;57391;51.306;22.680;2022-08-20T06:53:15;11.40;;;6.40;;
70049;SDS011;57391;51.306;22.680;2022-08-20T06:55:47;11.00;;;6.40;;
70049;SDS011;57391;51.306;22.680;2022-08-20T06:58:17;11.50;;;6.30;;
70049;SDS011;57391;51.306;22.680;2022-08-20T07:00:47;10.20;;;6.00;;
70049;SDS011;57391;51.306;22.680;2022-08-20T07:03:15;12.10;;;6.30;;
70049;SDS011;57391;51.306;22.680;2022-08-20T07:05:43;10.80;;;6.90;;
70049;SDS011;57391;51.306;22.680;2022-08-20T07:08:13;9.80;;;5.20;;
70049;SDS011;57391;51.306;22.680;2022-08-20T07:10:44;11.20;;;6.50;;
70049;SDS011;57391;51.306;22.680;2022-08-20T07:13:11;13.40;;;6.50;;
70049;SDS011;57391;51.306;22.680;2022-08-20T07:15:42;15.10;;;6.60;;
70049;SDS011;57391;51.306;22.680;2022-08-20T07:18:11;11.40;;;6.30;;
70049;SDS011;57391;51.306;22.680;2022-08-20T07:20:40;12.20;;;6.70;;
70049;SDS011;57391;51.306;22.680;2022-08-20T07:23:08;15.30;;;7.20;;
70049;SDS011;57391;51.306;22.680;2022-08-20T07:25:40;12.90;;;6.40;;
70049;SDS011;57391;51.306;22.680;2022-08-20T07:28:15;11.90;;;6.00;;
70049;SDS011;57391;51.306;22.680;2022-08-20T07:30:44;14.50;;;6.50;;
70049;SDS011;57391;51.306;22.680;2022-08-20T07:33:30;13.60;;;6.50;;
70049;SDS011;57391;51.306;22.680;2022-08-20T07:36:00;9.40;;;5.90;;
70049;SDS011;57391;51.306;22.680;2022-08-20T07:38:30;14.60;;;6.10;;
70049;SDS011;57391;51.306;22.680;2022-08-20T07:41:02;11.40;;;6.30;;
70049;SDS011;57391;51.306;22.680;2022-08-20T07:43:35;11.80;;;6.10;;
70049;SDS011;57391;51.306;22.680;2022-08-20T07:46:03;11.50;;;5.80;;
70049;SDS011;57391;51.306;22.680;2022-08-20T07:48:35;13.40;;;6.50;;
70049;SDS011;57391;51.306;22.680;2022-08-20T07:51:06;9.30;;;6.00;;
70049;SDS011;57391;51.306;22.680;2022-08-20T07:53:36;11.60;;;6.50;;
70049;SDS011;57391;51.306;22.680;2022-08-20T07:56:07;10.60;;;5.90;;
70049;SDS011;57391;51.306;22.680;2022-08-20T07:58:38;13.70;;;6.70;;
70049;SDS011;57391;51.306;22.680;2022-08-20T08:01:08;11.10;;;6.40;;
70049;SDS011;57391;51.306;22.680;2022-08-20T08:03:37;9.80;;;5.80;;
70049;SDS011;57391;51.306;22.680;2022-08-20T08:06:04;12.00;;;6.40;;
70049;SDS011;57391;51.306;22.680;2022-08-20T08:08:32;12.20;;;6.00;;
70049;SDS011;57391;51.306;22.680;2022-08-20T08:11:01;9.60;;;5.80;;
70049;SDS011;57391;51.306;22.680;2022-08-20T08:13:34;11.40;;;5.60;;
70049;SDS011;57391;51.306;22.680;2022-08-20T08:16:07;11.80;;;5.70;;
70049;SDS011;57391;51.306;22.680;2022-08-20T08:18:45;10.00;;;5.60;;
70049;SDS011;57391;51.306;22.680;2022-08-20T08:21:16;10.80;;;6.20;;
70049;SDS011;57391;51.306;22.680;2022-08-20T08:23:45;10.90;;;5.70;;
70049;SDS011;57391;51.306;22.680;2022-08-20T08:26:13;10.60;;;5.70;;
70049;SDS011;57391;51.306;22.680;2022-08-20T08:28:42;9.20;;;5.30;;
70049;SDS011;57391;51.306;22.680;2022-08-20T08:31:13;11.60;;;6.40;;
70049;SDS011;57391;51.306;22.680;2022-08-20T08:33:41;9.70;;;5.60;;
70049;SDS011;57391;51.306;22.680;2022-08-20T08:36:12;9.20;;;5.80;;
70049;SDS011;57391;51.306;22.680;2022-08-20T08:38:43;8.20;;;4.80;;
70049;SDS011;57391;51.306;22.680;2022-08-20T08:44:09;10.50;;;5.50;;
70049;SDS011;57391;51.306;22.680;2022-08-20T08:46:53;12.80;;;5.80;;
70049;SDS011;57391;51.306;22.680;2022-08-20T08:49:26;12.10;;;5.30;;
70049;SDS011;57391;51.306;22.680;2022-08-20T08:52:03;11.30;;;5.90;;
70049;SDS011;57391;51.306;22.680;2022-08-20T08:54:35;9.90;;;5.50;;
70049;SDS011;57391;51.306;22.680;2022-08-20T08:57:11;10.00;;;6.00;;
70049;SDS011;57391;51.306;22.680;2022-08-20T08:59:38;12.20;;;5.60;;
70049;SDS011;57391;51.306;22.680;2022-08-20T09:02:06;13.00;;;6.40;;
70049;SDS011;57391;51.306;22.680;2022-08-20T09:04:37;8.80;;;5.40;;
70049;SDS011;57391;51.306;22.680;2022-08-20T09:07:08;8.00;;;5.00;;
70049;SDS011;57391;51.306;22.680;2022-08-20T09:09:42;15.50;;;6.70;;
70049;SDS011;57391;51.306;22.680;2022-08-20T09:12:18;10.30;;;5.90;;
70049;SDS011;57391;51.306;22.680;2022-08-20T09:14:49;9.90;;;5.90;;
70049;SDS011;57391;51.306;22.680;2022-08-20T09:17:19;10.80;;;6.10;;
70049;SDS011;57391;51.306;22.680;2022-08-20T09:19:48;9.30;;;5.10;;
70049;SDS011;57391;51.306;22.680;2022-08-20T09:22:20;11.60;;;5.50;;
70049;SDS011;57391;51.306;22.680;2022-08-20T09:24:51;13.50;;;5.80;;
70049;SDS011;57391;51.306;22.680;2022-08-20T09:27:19;9.70;;;5.40;;
70049;SDS011;57391;51.306;22.680;2022-08-20T09:29:46;12.30;;;5.50;;
70049;SDS011;57391;51.306;22.680;2022-08-20T09:32:18;8.80;;;4.80;;
70049;SDS011;57391;51.306;22.680;2022-08-20T09:34:52;10.90;;;5.20;;
70049;SDS011;57391;51.306;22.680;2022-08-20T09:37:27;13.10;;;5.50;;
70049;SDS011;57391;51.306;22.680;2022-08-20T09:39:55;8.20;;;5.20;;
70049;SDS011;57391;51.306;22.680;2022-08-20T09:42:27;8.60;;;4.80;;
70049;SDS011;57391;51.306;22.680;2022-08-20T09:44:57;13.40;;;5.90;;
70049;SDS011;57391;51.306;22.680;2022-08-20T09:47:25;10.80;;;5.70;;
70049;SDS011;57391;51.306;22.680;2022-08-20T09:49:52;9.00;;;5.10;;
70049;SDS011;57391;51.306;22.680;2022-08-20T09:52:34;8.60;;;4.40;;
70049;SDS011;57391;51.306;22.680;2022-08-20T09:58:01;10.20;;;5.40;;
70049;SDS011;57391;51.306;22.680;2022-08-20T10:00:33;10.60;;;5.30;;
70049;SDS011;57391;51.306;22.680;2022-08-20T10:03:00;8.80;;;4.90;;
70049;SDS011;57391;51.306;22.680;2022-08-20T10:05:29;10.60;;;5.00;;
70049;SDS011;57391;51.306;22.680;2022-08-20T10:07:57;10.60;;;5.10;;
70049;SDS011;57391;51.306;22.680;2022-08-20T10:10:24;9.40;;;5.40;;
70049;SDS011;57391;51.306;22.680;2022-08-20T10:12:51;8.30;;;4.70;;
70049;SDS011;57391;51.306;22.680;2022-08-20T10:15:18;14.50;;;5.70;;
70049;SDS011;57391;51.306;22.680;2022-08-20T10:17:45;11.70;;;5.30;;
70049;SDS011;57391;51.306;22.680;2022-08-20T10:20:13;11.80;;;5.20;;
70049;SDS011;57391;51.306;22.680;2022-08-20T10:22:41;10.60;;;5.40;;
70049;SDS011;57391;51.306;22.680;2022-08-20T10:25:09;9.30;;;4.70;;
70049;SDS011;57391;51.306;22.680;2022-08-20T10:27:37;8.40;;;5.00;;
70049;SDS011;57391;51.306;22.680;2022-08-20T10:30:06;10.80;;;5.10;;
70049;SDS011;57391;51.306;22.680;2022-08-20T10:32:33;8.80;;;4.50;;
70049;SDS011;57391;51.306;22.680;2022-08-20T10:35:01;10.00;;;4.90;;
70049;SDS011;57391;51.306;22.680;2022-08-20T10:37:29;8.90;;;4.30;;
70049;SDS011;57391;51.306;22.680;2022-08-20T10:39:56;10.20;;;5.20;;
70049;SDS011;57391;51.306;22.680;2022-08-20T10:42:23;10.10;;;5.10;;
70049;SDS011;57391;51.306;22.680;2022-08-20T10:44:50;10.20;;;5.40;;
70049;SDS011;57391;51.306;22.680;2022-08-20T10:47:21;12.30;;;5.60;;
70049;SDS011;57391;51.306;22.680;2022-08-20T10:49:55;8.60;;;4.90;;
70049;SDS011;57391;51.306;22.680;2022-08-20T10:52:26;7.20;;;4.90;;
70049;SDS011;57391;51.306;22.680;2022-08-20T10:54:54;12.30;;;4.90;;
70049;SDS011;57391;51.306;22.680;2022-08-20T10:57:25;8.60;;;4.80;;
70049;SDS011;57391;51.306;22.680;2022-08-20T10:59:56;8.00;;;5.30;;
70049;SDS011;57391;51.306;22.680;2022-08-20T11:02:25;9.40;;;5.30;;
70049;SDS011;57391;51.306;22.680;2022-08-20T11:05:12;10.50;;;4.70;;
70049;SDS011;57391;51.306;22.680;2022-08-20T11:07:42;8.60;;;4.50;;
70049;SDS011;57391;51.306;22.680;2022-08-20T11:10:10;9.90;;;4.90;;
70049;SDS011;57391;51.306;22.680;2022-08-20T11:12:37;7.40;;;4.70;;
70049;SDS011;57391;51.306;22.680;2022-08-20T11:15:06;8.30;;;4.70;;
70049;SDS011;57391;51.306;22.680;2022-08-20T11:17:35;9.20;;;4.10;;
70049;SDS011;57391;51.306;22.680;2022-08-20T11:20:06;7.70;;;4.70;;
70049;SDS011;57391;51.306;22.680;2022-08-20T11:22:35;9.40;;;4.50;;
70049;SDS011;57391;51.306;22.680;2022-08-20T11:25:04;9.60;;;4.30;;
70049;SDS011;57391;51.306;22.680;2022-08-20T11:27:35;18.00;;;5.50;;
70049;SDS011;57391;51.306;22.680;2022-08-20T11:30:07;10.20;;;5.00;;
70049;SDS011;57391;51.306;22.680;2022-08-20T11:32:37;11.40;;;4.90;;
70049;SDS011;57391;51.306;22.680;2022-08-20T11:35:05;9.70;;;4.60;;
70049;SDS011;57391;51.306;22.680;2022-08-20T11:37:32;7.70;;;4.10;;
70049;SDS011;57391;51.306;22.680;2022-08-20T11:40:00;9.10;;;4.70;;
70049;SDS011;57391;51.306;22.680;2022-08-20T11:42:27;8.40;;;4.60;;
70049;SDS011;57391;51.306;22.680;2022-08-20T11:44:54;9.40;;;4.50;;
70049;SDS011;57391;51.306;22.680;2022-08-20T11:47:23;8.40;;;4.50;;
70049;SDS011;57391;51.306;22.680;2022-08-20T11:50:03;9.30;;;4.80;;
70049;SDS011;57391;51.306;22.680;2022-08-20T11:52:33;10.70;;;4.10;;
70049;SDS011;57391;51.306;22.680;2022-08-20T11:55:01;9.00;;;4.10;;
70049;SDS011;57391;51.306;22.680;2022-08-20T11:57:31;9.60;;;4.50;;
70049;SDS011;57391;51.306;22.680;2022-08-20T12:00:03;8.50;;;4.00;;
70049;SDS011;57391;51.306;22.680;2022-08-20T12:02:35;8.50;;;4.30;;
70049;SDS011;57391;51.306;22.680;2022-08-20T12:05:03;10.30;;;4.10;;
70049;SDS011;57391;51.306;22.680;2022-08-20T12:07:31;8.10;;;4.40;;
70049;SDS011;57391;51.306;22.680;2022-08-20T12:09:58;7.50;;;4.80;;
70049;SDS011;57391;51.306;22.680;2022-08-20T12:12:26;9.40;;;4.40;;
70049;SDS011;57391;51.306;22.680;2022-08-20T12:14:53;9.30;;;4.40;;
70049;SDS011;57391;51.306;22.680;2022-08-20T12:17:25;11.20;;;4.30;;
70049;SDS011;57391;51.306;22.680;2022-08-20T12:19:56;9.70;;;4.40;;
70049;SDS011;57391;51.306;22.680;2022-08-20T12:22:25;7.40;;;4.60;;
70049;SDS011;57391;51.306;22.680;2022-08-20T12:24:53;7.00;;;3.70;;
70049;SDS011;57391;51.306;22.680;2022-08-20T12:27:27;7.00;;;4.30;;
70049;SDS011;57391;51.306;22.680;2022-08-20T12:29:58;9.00;;;4.10;;
70049;SDS011;57391;51.306;22.680;2022-08-20T12:32:30;5.90;;;3.80;;
70049;SDS011;57391;51.306;22.680;2022-08-20T12:34:59;7.60;;;4.40;;
70049;SDS011;57391;51.306;22.680;2022-08-20T12:37:29;10.70;;;4.50;;
70049;SDS011;57391;51.306;22.680;2022-08-20T12:39:59;9.70;;;4.00;;
70049;SDS011;57391;51.306;22.680;2022-08-20T12:42:28;8.30;;;4.20;;
70049;SDS011;57391;51.306;22.680;2022-08-20T12:44:57;8.60;;;4.30;;
70049;SDS011;57391;51.306;22.680;2022-08-20T12:47:31;6.50;;;3.70;;
70049;SDS011;57391;51.306;22.680;2022-08-20T12:50:08;9.60;;;4.10;;
70049;SDS011;57391;51.306;22.680;2022-08-20T12:52:37;11.10;;;4.30;;
70049;SDS011;57391;51.306;22.680;2022-08-20T12:55:07;8.40;;;4.30;;
70049;SDS011;57391;51.306;22.680;2022-08-20T12:57:43;8.30;;;3.80;;
70049;SDS011;57391;51.306;22.680;2022-08-20T13:00:19;7.80;;;4.20;;
70049;SDS011;57391;51.306;22.680;2022-08-20T13:02:52;9.80;;;4.10;;
70049;SDS011;57391;51.306;22.680;2022-08-20T13:05:21;8.60;;;3.60;;
70049;SDS011;57391;51.306;22.680;2022-08-20T13:07:50;7.50;;;3.80;;
70049;SDS011;57391;51.306;22.680;2022-08-20T13:10:24;7.80;;;4.20;;
70049;SDS011;57391;51.306;22.680;2022-08-20T13:12:53;8.30;;;4.20;;
70049;SDS011;57391;51.306;22.680;2022-08-20T13:15:21;10.10;;;3.90;;
70049;SDS011;57391;51.306;22.680;2022-08-20T13:17:56;8.50;;;3.90;;
70049;SDS011;57391;51.306;22.680;2022-08-20T13:20:27;7.10;;;4.20;;
70049;SDS011;57391;51.306;22.680;2022-08-20T13:22:55;7.90;;;4.30;;
70049;SDS011;57391;51.306;22.680;2022-08-20T13:25:23;9.30;;;3.90;;
70049;SDS011;57391;51.306;22.680;2022-08-20T13:27:59;7.10;;;3.60;;
70049;SDS011;57391;51.306;22.680;2022-08-20T13:30:27;8.20;;;3.70;;
70049;SDS011;57391;51.306;22.680;2022-08-20T13:32:55;9.40;;;3.80;;
70049;SDS011;57391;51.306;22.680;2022-08-20T13:35:22;7.20;;;4.10;;
70049;SDS011;57391;51.306;22.680;2022-08-20T13:37:49;6.40;;;3.90;;
70049;SDS011;57391;51.306;22.680;2022-08-20T13:40:17;8.20;;;4.10;;
70049;SDS011;57391;51.306;22.680;2022-08-20T13:42:45;8.90;;;3.50;;
70049;SDS011;57391;51.306;22.680;2022-08-20T13:45:13;7.30;;;3.50;;
70049;SDS011;57391;51.306;22.680;2022-08-20T13:47:40;7.30;;;3.90;;
70049;SDS011;57391;51.306;22.680;2022-08-20T13:50:17;6.20;;;3.60;;
70049;SDS011;57391;51.306;22.680;2022-08-20T13:52:46;6.30;;;3.40;;
70049;SDS011;57391;51.306;22.680;2022-08-20T13:55:15;6.40;;;3.30;;
70049;SDS011;57391;51.306;22.680;2022-08-20T13:57:45;6.90;;;3.60;;
70049;SDS011;57391;51.306;22.680;2022-08-20T14:00:19;6.80;;;3.20;;
70049;SDS011;57391;51.306;22.680;2022-08-20T14:02:59;7.80;;;3.40;;
70049;SDS011;57391;51.306;22.680;2022-08-20T14:05:29;8.20;;;3.80;;
70049;SDS011;57391;51.306;22.680;2022-08-20T14:08:18;9.30;;;3.80;;
70049;SDS011;57391;51.306;22.680;2022-08-20T14:10:49;6.10;;;3.60;;
70049;SDS011;57391;51.306;22.680;2022-08-20T14:13:18;7.00;;;3.50;;
70049;SDS011;57391;51.306;22.680;2022-08-20T14:15:46;6.00;;;3.60;;
70049;SDS011;57391;51.306;22.680;2022-08-20T14:18:14;6.50;;;3.60;;
70049;SDS011;57391;51.306;22.680;2022-08-20T14:20:42;7.30;;;3.40;;
70049;SDS011;57391;51.306;22.680;2022-08-20T14:23:10;6.70;;;4.10;;
70049;SDS011;57391;51.306;22.680;2022-08-20T14:25:40;8.50;;;3.40;;
70049;SDS011;57391;51.306;22.680;2022-08-20T14:28:18;7.90;;;3.60;;
70049;SDS011;57391;51.306;22.680;2022-08-20T14:30:49;5.50;;;3.20;;
70049;SDS011;57391;51.306;22.680;2022-08-20T14:33:17;6.60;;;3.00;;
70049;SDS011;57391;51.306;22.680;2022-08-20T14:35:44;5.80;;;2.80;;
70049;SDS011;57391;51.306;22.680;2022-08-20T14:38:11;10.10;;;4.70;;
70049;SDS011;57391;51.306;22.680;2022-08-20T14:40:38;9.00;;;4.50;;
70049;SDS011;57391;51.306;22.680;2022-08-20T14:43:06;9.10;;;3.60;;
70049;SDS011;57391;51.306;22.680;2022-08-20T14:45:33;7.30;;;3.20;;
70049;SDS011;57391;51.306;22.680;2022-08-20T14:48:01;5.80;;;3.10;;
70049;SDS011;57391;51.306;22.680;2022-08-20T14:50:34;6.20;;;3.10;;
70049;SDS011;57391;51.306;22.680;2022-08-20T14:53:02;6.60;;;3.30;;
70049;SDS011;57391;51.306;22.680;2022-08-20T14:55:33;7.20;;;3.40;;
70049;SDS011;57391;51.306;22.680;2022-08-20T14:58:11;6.80;;;2.80;;
70049;SDS011;57391;51.306;22.680;2022-08-20T15:00:41;7.60;;;3.10;;
70049;SDS011;57391;51.306;22.680;2022-08-20T15:03:08;5.90;;;3.10;;
70049;SDS011;57391;51.306;22.680;2022-08-20T15:05:36;7.40;;;3.40;;
70049;SDS011;57391;51.306;22.680;2022-08-20T15:08:03;6.10;;;3.30;;